RJDB(METAR)
12/11 17:00
RJDB 110800Z 07007KT 9999 RA FEW007 SCT010 BKN015 11/10 Q1019 RMK
A3010=
戻る
トップページへ戻る
IMOC Co,.Ltd.